Terminal Aerodrome Forecast
Issued by NWS

Home | Current Version | Previous Version | Text Only | Print | Product List | Glossary On
Versions: 1 2 3 4 5 6 7 8 9 10 11 12 13 14 15 16 17 18 19 20 21 22 23 24
000
FTUS43 KDTX 192300
TAFPTK
TAF
KPTK 192322Z 2000/2024 16006KT P6SM BKN250
     FM200800 21010KT P6SM SCT150 BKN250
     FM201500 23014G23KT P6SM BKN120
     FM202100 23010KT 6SM SHRA BKN040 OVC080=

USA.gov is the U.S. government's official web portal to all federal, state and local government web resources and services.